Nore, Minnesota
Current Conditions -  °F | °C
As of 11:13 PM on Monday 20 Oct 2014 (Local Time) from KFOZ Reporting Station
Clear Clear  
Wind Chill: 32°   Ceiling: Unl
Heat Index: 32°   Visibility: 10mi
Dew Point: 30°   Wind: 0mph
Humidity: 93%   Direction: NA
Pressure: 30.12"   Gusts: NA
Location:  47.8312°N, 94.1459°W
Report Text: KFOZ 210413Z AUTO 00000KT 10SM CLR 00/M01 A3012 RMK AO2
Loading
Personal Weather Stations






























Interactive Weather Map
Tropical Storm Tracking
New forecast layout! Learn more

10-Day Weather Forecast

Advertisements
Track Severe Weather on mobile